Time;durP1;ratioP1;P1;durP2;ratioP2;P2;SDS_P1;SDS_P2;PMS_P1;PMS_P2;Temp;Humidity;BMP_temperature;BMP_pressure;BME280_temperature;BME280_humidity;BME280_pressure;Samples;Min_cycle;Max_cycle;Signal;HPM_P1;HPM_P2
2023/07/02 00:01:48;;;;;;;;;6.00;6.00;;;;;17.81;59.67;100651.19;5059405;28;8847;-66
2023/07/02 00:04:19;;;;;;;;;4.50;4.50;;;;;17.81;59.35;100652.03;5053122;28;8940;-66
2023/07/02 00:06:46;;;;;;;;;9.25;8.50;;;;;17.78;58.97;100656.09;5048975;28;8822;-67
2023/07/02 00:09:14;;;;;;;;;6.00;5.00;;;;;17.73;58.53;100657.84;5035305;28;9619;-67
2023/07/02 00:11:43;;;;;;;;;9.50;6.75;;;;;17.67;58.24;100653.41;5037432;28;8876;-66
2023/07/02 00:14:10;;;;;;;;;8.00;8.00;;;;;17.62;57.74;100648.66;5050256;28;8822;-67
2023/07/02 00:16:44;;;;;;;;;8.33;7.67;;;;;17.65;57.86;100648.19;5031134;28;8953;-66
2023/07/02 00:19:14;;;;;;;;;8.00;6.00;;;;;17.66;57.63;100649.00;5049106;28;9921;-65
2023/07/02 00:21:41;;;;;;;;;5.50;4.25;;;;;17.67;57.57;100651.50;5058070;28;9559;-65
2023/07/02 00:24:11;;;;;;;;;12.00;7.00;;;;;17.64;57.16;100660.16;5065819;28;8936;-67
2023/07/02 00:26:38;;;;;;;;;8.67;8.33;;;;;17.63;57.41;100650.34;5053086;28;8991;-67
2023/07/02 00:29:06;;;;;;;;;8.00;8.00;;;;;17.66;57.28;100652.56;5051456;28;8954;-67
2023/07/02 00:31:33;;;;;;;;;6.00;4.25;;;;;17.68;57.69;100650.41;5055866;28;9025;-67
2023/07/02 00:34:01;;;;;;;;;8.00;7.00;;;;;17.63;57.19;100641.34;5053795;28;9685;-66
2023/07/02 00:36:28;;;;;;;;;10.00;10.00;;;;;17.62;57.20;100645.94;5057396;28;8823;-66
2023/07/02 00:38:55;;;;;;;;;10.33;8.00;;;;;17.57;56.95;100642.31;5052718;28;9019;-66
2023/07/02 00:41:23;;;;;;;;;10.00;9.33;;;;;17.54;57.35;100644.47;5056827;28;9019;-66
2023/07/02 00:43:50;;;;;;;;;9.00;6.33;;;;;17.57;57.67;100654.03;5055645;28;9063;-66
2023/07/02 00:46:21;;;;;;;;;8.33;7.00;;;;;17.57;57.44;100648.59;5049386;28;8918;-66
2023/07/02 00:48:50;;;;;;;;;9.00;8.00;;;;;17.51;57.62;100655.84;5031252;28;9010;-67
2023/07/02 00:51:20;;;;;;;;;7.33;6.33;;;;;17.50;57.38;100656.06;5049598;28;9067;-67
2023/07/02 00:53:48;;;;;;;;;9.67;7.00;;;;;17.51;57.83;100655.03;5063239;28;8911;-67
2023/07/02 00:56:14;;;;;;;;;9.00;8.00;;;;;17.51;57.85;100661.28;5067180;28;8990;-67
2023/07/02 00:58:48;;;;;;;;;8.00;8.00;;;;;17.52;57.98;100654.75;5040420;28;8972;-66
2023/07/02 01:01:22;;;;;;;;;7.00;4.00;;;;;17.49;57.73;100654.44;5045816;28;9201;-65
2023/07/02 01:03:59;;;;;;;;;8.00;7.00;;;;;17.49;57.76;100663.41;5050396;28;9281;-65
2023/07/02 01:06:44;;;;;;;;;7.00;6.33;;;;;17.49;58.05;100655.25;5056959;28;9068;-67
2023/07/02 01:09:11;;;;;;;;;7.00;6.33;;;;;17.50;57.98;100658.78;5048663;28;8990;-66
2023/07/02 01:11:44;;;;;;;;;7.00;7.00;;;;;17.48;58.01;100660.94;5047805;28;9022;-66
2023/07/02 01:14:16;;;;;;;;;6.33;6.33;;;;;17.49;58.47;100668.03;5049447;28;9037;-66
2023/07/02 01:16:43;;;;;;;;;8.67;8.33;;;;;17.48;58.46;100666.38;5058237;28;9007;-66
2023/07/02 01:19:18;;;;;;;;;9.00;7.67;;;;;17.43;58.64;100667.13;5044331;28;9048;-67
2023/07/02 01:21:49;;;;;;;;;6.00;6.00;;;;;17.43;58.30;100666.31;5049418;28;9199;-67
2023/07/02 01:24:17;;;;;;;;;7.33;5.67;;;;;17.38;58.53;100664.31;5048888;28;8999;-67
2023/07/02 01:26:45;;;;;;;;;6.33;6.00;;;;;17.38;58.66;100669.75;5059782;28;8912;-67
2023/07/02 01:29:16;;;;;;;;;7.00;7.00;;;;;17.38;58.69;100677.91;5057823;28;9102;-67
2023/07/02 01:31:42;;;;;;;;;5.33;5.00;;;;;17.37;58.65;100675.44;5045821;28;9015;-67
2023/07/02 01:34:09;;;;;;;;;7.00;7.00;;;;;17.37;58.61;100676.25;5034178;28;8929;-66
2023/07/02 01:36:36;;;;;;;;;10.67;9.33;;;;;17.36;58.34;100673.78;5046357;28;9065;-66
2023/07/02 01:39:03;;;;;;;;;9.00;5.33;;;;;17.36;58.31;100673.78;5042504;28;9082;-66
2023/07/02 01:41:36;;;;;;;;;9.33;8.67;;;;;17.30;58.43;100676.41;5048371;28;8948;-67
2023/07/02 01:44:03;;;;;;;;;6.67;6.67;;;;;17.30;58.67;100675.59;5048190;28;9006;-66
2023/07/02 01:46:29;;;;;;;;;8.00;8.00;;;;;17.29;58.68;100668.47;5048182;28;9138;-67
2023/07/02 01:48:56;;;;;;;;;6.75;5.75;;;;;17.28;58.63;100667.66;5059802;28;9065;-67
2023/07/02 01:51:23;;;;;;;;;6.00;5.33;;;;;17.24;58.53;100666.47;5060901;28;8863;-67
2023/07/02 01:53:49;;;;;;;;;5.67;5.67;;;;;17.23;58.38;100662.13;5065424;28;9011;-64
2023/07/02 01:56:16;;;;;;;;;5.00;3.00;;;;;17.22;58.66;100678.69;5061215;28;8905;-67
2023/07/02 01:58:43;;;;;;;;;6.67;5.67;;;;;17.23;58.68;100672.19;5068482;28;9003;-67
2023/07/02 02:01:10;;;;;;;;;9.33;7.00;;;;;17.19;58.33;100682.72;5053846;28;9183;-67
2023/07/02 02:03:37;;;;;;;;;9.67;7.00;;;;;17.19;58.42;100676.44;5058491;28;9750;-66
2023/07/02 02:06:03;;;;;;;;;7.00;6.00;;;;;17.19;58.61;100671.00;5057650;28;9114;-68
2023/07/02 02:08:30;;;;;;;;;6.00;5.67;;;;;17.18;58.46;100678.34;5046746;28;9155;-67
2023/07/02 02:10:56;;;;;;;;;6.67;5.33;;;;;17.20;58.55;100678.91;5029943;28;9758;-67
2023/07/02 02:13:23;;;;;;;;;8.67;8.33;;;;;17.20;58.83;100676.19;5052695;28;9023;-67
2023/07/02 02:15:49;;;;;;;;;11.67;8.00;;;;;17.17;58.46;100671.22;5062478;28;9241;-66
2023/07/02 02:18:16;;;;;;;;;7.00;6.00;;;;;17.14;58.66;100660.88;5058057;28;9140;-66
2023/07/02 02:20:42;;;;;;;;;10.67;7.00;;;;;17.15;58.75;100667.13;5052448;28;9032;-67
2023/07/02 02:23:09;;;;;;;;;6.67;3.67;;;;;17.14;58.74;100670.91;5035379;28;9070;-66
2023/07/02 02:25:35;;;;;;;;;9.00;7.67;;;;;17.13;59.16;100672.78;5069526;28;8930;-67
2023/07/02 02:28:02;;;;;;;;;10.67;7.67;;;;;17.11;58.60;100674.13;5052596;28;9252;-65
2023/07/02 02:30:29;;;;;;;;;10.00;9.00;;;;;17.09;59.04;100679.78;5060629;28;9072;-66
2023/07/02 02:32:55;;;;;;;;;7.00;6.00;;;;;17.11;58.76;100690.44;5054300;28;9687;-66
2023/07/02 02:35:23;;;;;;;;;7.00;7.00;;;;;17.10;58.61;100691.50;5053270;28;9023;-66
2023/07/02 02:37:50;;;;;;;;;6.67;6.33;;;;;17.06;58.60;100685.72;5056149;28;9186;-65
2023/07/02 02:40:17;;;;;;;;;7.00;7.00;;;;;17.04;58.81;100685.13;5060377;28;9257;-66
2023/07/02 02:42:43;;;;;;;;;14.00;7.33;;;;;17.01;58.49;100691.88;5060371;28;9172;-66
2023/07/02 02:45:10;;;;;;;;;11.33;8.00;;;;;17.01;59.10;100697.31;5066572;28;9267;-65
2023/07/02 02:47:37;;;;;;;;;7.67;6.33;;;;;17.01;58.75;100693.75;5066480;28;9151;-66
2023/07/02 02:50:05;;;;;;;;;13.00;10.33;;;;;16.99;59.25;100699.44;5063950;28;9002;-67
2023/07/02 02:52:32;;;;;;;;;6.33;5.67;;;;;16.99;59.32;100702.16;5052611;28;9901;-67
2023/07/02 02:54:59;;;;;;;;;11.33;8.33;;;;;16.98;59.09;100700.53;5042408;28;9014;-65
2023/07/02 02:57:25;;;;;;;;;8.00;8.00;;;;;16.96;59.42;100702.63;5034152;28;9114;-67
2023/07/02 02:59:52;;;;;;;;;11.33;9.67;;;;;16.97;59.09;100698.03;5057039;28;9086;-66
2023/07/02 03:02:18;;;;;;;;;9.33;8.33;;;;;16.95;59.51;100701.00;5059119;28;9401;-66
2023/07/02 03:04:45;;;;;;;;;9.33;6.33;;;;;16.93;59.09;100705.00;5045508;28;9030;-66
2023/07/02 03:07:12;;;;;;;;;12.67;5.33;;;;;16.91;59.01;100707.16;5063959;28;9819;-67
2023/07/02 03:09:38;;;;;;;;;11.33;11.33;;;;;16.89;59.43;100706.53;5054205;28;9064;-66
2023/07/02 03:12:05;;;;;;;;;8.00;7.00;;;;;16.88;59.40;100710.34;5046295;28;9103;-66
2023/07/02 03:14:32;;;;;;;;;8.33;8.00;;;;;16.84;59.39;100714.59;5064686;28;9053;-67
2023/07/02 03:16:59;;;;;;;;;7.33;6.33;;;;;16.82;59.22;100703.16;5060165;28;9286;-68
2023/07/02 03:19:26;;;;;;;;;14.00;8.00;;;;;16.82;59.42;100714.03;5050061;28;9336;-68
2023/07/02 03:21:52;;;;;;;;;13.67;9.67;;;;;16.82;59.30;100714.84;5039341;28;9159;-68
2023/07/02 03:24:19;;;;;;;;;7.33;6.67;;;;;16.82;59.18;100714.03;5033901;28;9156;-67
2023/07/02 03:26:45;;;;;;;;;6.00;6.00;;;;;16.82;59.35;100716.75;5051182;28;9052;-67
2023/07/02 03:29:12;;;;;;;;;8.67;7.00;;;;;16.80;59.33;100715.06;5071543;28;9065;-67
2023/07/02 03:31:39;;;;;;;;;7.33;7.33;;;;;16.79;59.14;100715.31;5069928;28;8999;-67
2023/07/02 03:34:09;;;;;;;;;8.00;7.67;;;;;16.76;58.92;100718.50;5037531;28;9193;-66
2023/07/02 03:36:37;;;;;;;;;7.00;4.33;;;;;16.72;58.47;100717.31;5054339;28;9135;-67
2023/07/02 03:39:04;;;;;;;;;7.00;5.33;;;;;16.70;58.94;100708.56;5059956;28;9060;-67
2023/07/02 03:41:34;;;;;;;;;9.00;6.33;;;;;16.70;58.95;100714.00;5053250;28;9076;-66
2023/07/02 03:44:01;;;;;;;;;7.00;5.67;;;;;16.66;58.99;100713.66;5049583;28;9043;-67
2023/07/02 03:46:28;;;;;;;;;9.00;7.33;;;;;16.67;59.15;100720.72;5057672;28;9290;-65
2023/07/02 03:48:54;;;;;;;;;7.00;7.00;;;;;16.69;59.10;100725.91;5048325;28;9154;-66
2023/07/02 03:51:21;;;;;;;;;7.67;6.33;;;;;16.70;59.40;100725.72;5057249;28;9082;-67
2023/07/02 03:53:47;;;;;;;;;6.00;6.00;;;;;16.68;59.38;100727.81;5051048;28;9011;-67
2023/07/02 03:56:14;;;;;;;;;9.00;5.00;;;;;16.70;59.48;100730.31;5051356;28;8995;-67
2023/07/02 03:58:41;;;;;;;;;11.33;10.67;;;;;16.66;59.68;100729.97;5054731;28;8924;-65
2023/07/02 04:01:08;;;;;;;;;5.67;5.67;;;;;16.65;59.73;100736.47;5038361;28;9803;-65
2023/07/02 04:03:35;;;;;;;;;11.00;9.00;;;;;16.66;60.32;100731.84;5059882;28;8955;-66
2023/07/02 04:06:01;;;;;;;;;9.00;9.00;;;;;16.65;60.53;100732.91;5046099;28;9080;-65
2023/07/02 04:08:28;;;;;;;;;9.00;9.00;;;;;16.66;60.59;100745.44;5045101;28;9057;-64
2023/07/02 04:10:54;;;;;;;;;9.00;7.67;;;;;16.65;60.49;100739.19;5048252;28;9355;-65
2023/07/02 04:13:21;;;;;;;;;13.67;7.00;;;;;16.70;61.04;100744.72;5049271;28;9173;-65
2023/07/02 04:15:47;;;;;;;;;7.33;7.33;;;;;16.74;60.59;100743.22;5056453;28;9154;-64
2023/07/02 04:18:14;;;;;;;;;9.00;6.00;;;;;16.75;60.40;100744.88;5069715;28;9080;-64
2023/07/02 04:20:40;;;;;;;;;10.00;8.00;;;;;16.69;60.57;100745.81;5070696;28;9193;-65
2023/07/02 04:23:07;;;;;;;;;8.00;8.00;;;;;16.66;60.79;100751.69;5069563;28;9141;-64
2023/07/02 04:25:33;;;;;;;;;10.33;7.67;;;;;16.65;60.74;100749.19;5051867;28;9320;-64
2023/07/02 04:28:20;;;;;;;;;9.67;9.67;;;;;16.64;60.98;100750.28;5046326;28;9223;-64
2023/07/02 04:30:49;;;;;;;;;5.67;5.67;;;;;16.64;61.21;100758.44;5054258;28;9330;-63
2023/07/02 04:33:17;;;;;;;;;10.33;7.33;;;;;16.64;61.02;100756.53;5060507;28;9099;-64
2023/07/02 04:35:44;;;;;;;;;12.33;9.00;;;;;16.61;60.76;100756.19;5062367;28;9194;-64
2023/07/02 04:38:11;;;;;;;;;5.67;5.67;;;;;16.60;60.76;100763.50;5047676;28;9314;-64
2023/07/02 04:40:38;;;;;;;;;6.00;5.00;;;;;16.62;60.99;100764.13;5045827;28;9883;-65
2023/07/02 04:43:05;;;;;;;;;8.67;7.00;;;;;16.55;60.99;100772.38;5049179;28;9102;-64
2023/07/02 04:45:36;;;;;;;;;7.00;6.67;;;;;16.54;61.10;100761.75;5056135;28;8984;-65
2023/07/02 04:48:03;;;;;;;;;7.33;7.33;;;;;16.57;61.08;100766.72;5059465;28;9240;-65
2023/07/02 04:50:30;;;;;;;;;8.33;7.67;;;;;16.56;61.50;100763.16;5063417;28;9300;-65
2023/07/02 04:52:57;;;;;;;;;6.00;5.33;;;;;16.55;61.20;100766.94;5068640;28;9165;-65
2023/07/02 04:55:23;;;;;;;;;5.00;5.00;;;;;16.60;61.36;100776.28;5058865;28;10249;-65
2023/07/02 04:57:50;;;;;;;;;6.00;6.00;;;;;16.61;61.74;100765.19;5037571;28;9184;-66
2023/07/02 05:00:17;;;;;;;;;8.33;7.00;;;;;16.62;61.56;100764.13;5045481;28;8915;-66
2023/07/02 05:02:43;;;;;;;;;5.00;5.00;;;;;16.63;61.76;100767.66;5060248;28;9403;-65
2023/07/02 05:05:10;;;;;;;;;6.00;3.67;;;;;16.64;61.44;100767.41;5048828;28;8921;-66
2023/07/02 05:07:37;;;;;;;;;8.00;6.33;;;;;16.65;61.78;100776.38;5060112;28;8994;-66
2023/07/02 05:10:03;;;;;;;;;9.33;9.00;;;;;16.64;61.63;100775.56;5049973;28;8996;-65
2023/07/02 05:12:30;;;;;;;;;9.00;7.00;;;;;16.63;61.78;100773.91;5031704;28;9182;-64
2023/07/02 05:14:56;;;;;;;;;10.33;7.00;;;;;16.62;61.28;100777.69;5041307;28;9174;-64
2023/07/02 05:17:23;;;;;;;;;7.00;6.00;;;;;16.60;61.36;100779.00;5042849;28;9146;-65
2023/07/02 05:19:50;;;;;;;;;5.67;3.33;;;;;16.64;61.50;100785.59;5030067;28;8993;-65
2023/07/02 05:22:18;;;;;;;;;7.67;7.33;;;;;16.64;61.38;100780.16;5029366;28;8991;-65
2023/07/02 05:24:46;;;;;;;;;4.00;4.00;;;;;16.64;61.07;100775.56;5037714;28;9069;-63
2023/07/02 05:27:12;;;;;;;;;8.00;6.67;;;;;16.67;61.32;100780.53;5052711;28;9787;-67
2023/07/02 05:29:39;;;;;;;;;10.67;8.00;;;;;16.68;60.50;100784.06;5044644;28;9863;-64
2023/07/02 05:32:06;;;;;;;;;10.00;6.00;;;;;16.73;60.66;100786.94;5054576;28;9109;-66
2023/07/02 05:34:33;;;;;;;;;7.00;7.00;;;;;16.77;60.80;100786.25;5046909;28;9112;-66
2023/07/02 05:37:00;;;;;;;;;9.00;7.00;;;;;16.87;60.73;100791.09;5060519;28;9239;-64
2023/07/02 05:39:26;;;;;;;;;11.33;9.00;;;;;17.00;59.60;100790.00;5055920;28;9999;-66
2023/07/02 05:41:53;;;;;;;;;12.33;6.67;;;;;17.09;58.99;100801.34;5055372;28;9071;-65
2023/07/02 05:44:20;;;;;;;;;5.67;5.00;;;;;17.21;59.60;100808.41;5040349;28;8989;-64
2023/07/02 05:46:46;;;;;;;;;6.00;4.75;;;;;17.35;59.66;100808.19;5050450;28;8929;-65
2023/07/02 05:49:13;;;;;;;;;5.50;4.50;;;;;17.42;58.92;100809.72;5033251;28;8824;-66
2023/07/02 05:51:39;;;;;;;;;7.33;6.00;;;;;17.49;58.67;100810.38;5060090;28;8911;-65
2023/07/02 05:54:06;;;;;;;;;8.50;6.00;;;;;17.59;58.38;100806.22;5056462;28;9089;-65
2023/07/02 05:56:33;;;;;;;;;9.33;6.67;;;;;17.61;58.65;100807.63;5055928;28;8827;-66
2023/07/02 05:58:59;;;;;;;;;7.67;6.33;;;;;17.64;58.36;100811.75;5054616;28;8935;-66
2023/07/02 06:01:26;;;;;;;;;6.00;6.00;;;;;17.68;58.57;100818.38;5054795;28;8934;-65
2023/07/02 06:03:53;;;;;;;;;6.50;6.50;;;;;17.71;58.62;100818.72;5049879;28;8867;-65
2023/07/02 06:06:22;;;;;;;;;6.25;6.00;;;;;17.66;57.74;100821.34;5054893;28;8845;-66
2023/07/02 06:08:49;;;;;;;;;8.33;6.33;;;;;17.63;57.47;100826.44;5065870;28;8854;-65
2023/07/02 06:11:15;;;;;;;;;6.00;5.33;;;;;17.59;58.10;100834.28;5052901;28;8921;-66
2023/07/02 06:13:42;;;;;;;;;8.33;6.33;;;;;17.60;58.21;100826.94;5052966;28;8956;-66
2023/07/02 06:16:08;;;;;;;;;8.00;8.00;;;;;17.63;58.38;100834.63;5050244;28;9045;-66
2023/07/02 06:18:35;;;;;;;;;7.00;6.00;;;;;17.59;58.13;100831.56;5056375;28;8960;-65
2023/07/02 06:21:02;;;;;;;;;10.33;7.67;;;;;17.52;58.02;100833.56;5040567;28;9078;-66
2023/07/02 06:23:29;;;;;;;;;5.25;5.25;;;;;17.45;57.93;100832.88;5031866;28;9148;-66
2023/07/02 06:25:58;;;;;;;;;8.00;6.00;;;;;17.39;58.79;100825.69;5032734;28;8816;-65
2023/07/02 06:28:28;;;;;;;;;8.75;7.00;;;;;17.41;58.78;100829.78;5046137;28;9007;-66
2023/07/02 06:30:55;;;;;;;;;5.00;5.00;;;;;17.40;58.91;100833.59;5060164;28;8874;-65
2023/07/02 06:33:21;;;;;;;;;6.75;6.75;;;;;17.35;58.38;100832.66;5061917;28;9563;-65
2023/07/02 06:35:49;;;;;;;;;6.50;6.50;;;;;17.28;58.35;100844.50;5069021;28;9599;-66
2023/07/02 06:38:15;;;;;;;;;8.25;5.25;;;;;17.24;58.29;100848.75;5052906;28;8826;-65
2023/07/02 06:40:42;;;;;;;;;9.00;9.00;;;;;17.22;58.72;100840.03;5058540;28;8879;-66
2023/07/02 06:43:08;;;;;;;;;9.00;6.25;;;;;17.14;58.86;100845.81;5040028;28;9036;-65
2023/07/02 06:45:35;;;;;;;;;6.00;4.25;;;;;17.14;58.74;100842.28;5044417;28;9712;-65
2023/07/02 06:48:01;;;;;;;;;5.00;5.00;;;;;17.16;58.48;100846.41;5049137;28;8864;-65
2023/07/02 06:50:28;;;;;;;;;5.67;4.00;;;;;17.17;58.97;100852.66;5055509;28;8928;-65
2023/07/02 06:52:55;;;;;;;;;9.75;5.50;;;;;17.19;58.90;100864.16;5057432;28;8931;-65
2023/07/02 06:55:21;;;;;;;;;7.50;6.00;;;;;17.07;58.42;100858.72;5043566;28;8851;-65
2023/07/02 06:57:48;;;;;;;;;8.00;7.33;;;;;17.07;59.14;100860.59;5056707;28;8827;-65
2023/07/02 07:00:14;;;;;;;;;2.50;2.50;;;;;17.16;58.97;100861.91;5061597;28;9004;-64
2023/07/02 07:02:41;;;;;;;;;6.00;4.00;;;;;17.24;58.99;100873.25;5056291;28;8823;-65
2023/07/02 07:05:09;;;;;;;;;5.75;5.75;;;;;17.28;58.61;100881.75;5068712;28;8933;-64
2023/07/02 07:07:36;;;;;;;;;3.50;3.00;;;;;17.32;58.25;100882.13;5065981;28;8823;-65
2023/07/02 07:10:03;;;;;;;;;5.25;4.50;;;;;17.36;58.40;100875.94;5066910;28;8854;-65
2023/07/02 07:12:30;;;;;;;;;10.00;7.67;;;;;17.40;57.77;100879.84;5072569;28;8884;-67
2023/07/02 07:14:56;;;;;;;;;6.67;5.33;;;;;17.43;57.26;100884.00;5058695;28;8912;-65
2023/07/02 07:17:23;;;;;;;;;6.75;4.00;;;;;17.41;57.15;100881.50;5071555;28;9048;-66
2023/07/02 07:19:50;;;;;;;;;5.75;5.00;;;;;17.39;56.89;100890.97;5070807;28;8893;-65
2023/07/02 07:22:16;;;;;;;;;6.75;4.00;;;;;17.39;57.19;100901.88;5063483;28;8943;-64
2023/07/02 07:24:42;;;;;;;;;7.25;5.75;;;;;17.38;57.73;100895.59;5049271;28;8836;-63
2023/07/02 07:27:09;;;;;;;;;6.00;5.67;;;;;17.43;57.22;100903.06;5052060;28;8923;-64
2023/07/02 07:29:36;;;;;;;;;5.33;5.33;;;;;17.47;57.50;100907.78;5059168;28;8902;-65
2023/07/02 07:32:03;;;;;;;;;9.33;8.33;;;;;17.46;57.39;100910.72;5059345;28;8933;-66
2023/07/02 07:34:29;;;;;;;;;5.67;5.33;;;;;17.53;57.42;100903.25;5071739;28;8930;-66
2023/07/02 07:36:56;;;;;;;;;4.67;4.67;;;;;17.55;57.23;100895.69;5053144;28;8945;-67
2023/07/02 07:39:22;;;;;;;;;10.00;8.33;;;;;17.54;56.72;100915.78;5054943;28;8923;-68
2023/07/02 07:41:49;;;;;;;;;6.00;6.00;;;;;17.59;56.33;100912.38;5060410;28;9149;-67
2023/07/02 07:44:15;;;;;;;;;6.00;5.25;;;;;17.64;56.72;100913.31;5057533;28;9029;-68
2023/07/02 07:46:42;;;;;;;;;6.75;6.25;;;;;17.63;56.71;100919.84;5042648;28;8828;-67
2023/07/02 07:49:12;;;;;;;;;7.75;5.25;;;;;17.70;57.06;100917.81;5031779;28;8915;-67
2023/07/02 07:51:39;;;;;;;;;8.33;6.00;;;;;17.74;56.79;100916.31;5055527;28;8854;-67
2023/07/02 07:54:06;;;;;;;;;6.00;5.00;;;;;17.73;56.24;100914.59;5050157;28;8910;-67
2023/07/02 07:56:32;;;;;;;;;10.00;10.00;;;;;17.75;56.19;100919.84;5055212;28;8829;-67
2023/07/02 07:58:59;;;;;;;;;8.25;5.00;;;;;17.83;56.24;100922.19;5044340;28;8947;-68
2023/07/02 08:01:27;;;;;;;;;7.25;5.00;;;;;17.91;56.37;100915.56;5047654;28;8846;-67
2023/07/02 08:03:53;;;;;;;;;7.25;7.25;;;;;17.91;56.24;100921.81;5042838;28;8826;-67
2023/07/02 08:06:20;;;;;;;;;8.33;7.00;;;;;17.92;56.25;100925.38;5046829;28;8839;-66
2023/07/02 08:08:46;;;;;;;;;6.33;5.67;;;;;17.96;55.87;100927.38;5037757;28;8994;-67
2023/07/02 08:11:13;;;;;;;;;6.25;4.00;;;;;17.87;55.74;100926.09;5046307;28;8984;-67
2023/07/02 08:13:39;;;;;;;;;6.00;6.00;;;;;17.85;55.97;100921.94;5044656;28;8922;-67
2023/07/02 08:16:06;;;;;;;;;5.00;5.00;;;;;17.88;56.67;100927.75;5049512;28;8833;-64
2023/07/02 08:18:33;;;;;;;;;4.75;4.75;;;;;17.93;56.70;100924.28;5055290;28;8930;-65
2023/07/02 08:20:59;;;;;;;;;6.00;6.00;;;;;17.92;56.76;100936.25;5049543;28;8907;-66
2023/07/02 08:23:26;;;;;;;;;6.00;6.00;;;;;17.82;57.06;100938.75;5042069;28;8838;-65
2023/07/02 08:25:52;;;;;;;;;7.50;5.00;;;;;17.89;56.47;100929.38;5048730;28;8833;-66
2023/07/02 08:28:19;;;;;;;;;4.50;3.50;;;;;17.94;56.17;100937.66;5046728;28;8919;-65
2023/07/02 08:30:45;;;;;;;;;7.00;5.25;;;;;17.97;56.85;100926.28;5041344;28;8947;-65
2023/07/02 08:33:12;;;;;;;;;6.50;6.50;;;;;18.05;56.73;100930.53;5046868;28;8829;-66
2023/07/02 08:35:38;;;;;;;;;4.25;4.00;;;;;18.13;56.98;100937.50;5034663;28;8847;-66
2023/07/02 08:38:05;;;;;;;;;4.75;4.75;;;;;18.01;55.40;100938.34;5053588;28;8856;-64
2023/07/02 08:40:31;;;;;;;;;7.50;6.00;;;;;17.99;55.65;100945.97;5061159;28;8827;-66
2023/07/02 08:42:58;;;;;;;;;4.75;4.75;;;;;18.03;55.95;100949.03;5048646;28;8940;-65
2023/07/02 08:45:27;;;;;;;;;4.25;4.25;;;;;18.04;55.74;100953.41;5051532;28;8943;-65
2023/07/02 08:47:56;;;;;;;;;6.50;4.50;;;;;18.01;56.38;100957.41;5062333;28;8831;-66
2023/07/02 08:50:23;;;;;;;;;5.75;5.75;;;;;17.98;56.27;100954.34;5052289;28;8830;-64
2023/07/02 08:52:50;;;;;;;;;6.50;5.00;;;;;17.99;55.81;100956.84;5043783;28;8966;-65
2023/07/02 08:55:16;;;;;;;;;5.00;5.00;;;;;18.12;56.07;100958.47;5061568;28;8850;-67
2023/07/02 08:57:49;;;;;;;;;6.25;6.00;;;;;18.20;56.42;100963.53;5042574;28;8895;-65
2023/07/02 09:00:16;;;;;;;;;8.00;5.50;;;;;18.23;56.19;100956.75;5050004;28;8839;-66
2023/07/02 09:02:43;;;;;;;;;7.00;5.00;;;;;18.22;55.75;100961.38;5051273;28;8826;-65
2023/07/02 09:05:09;;;;;;;;;4.75;4.75;;;;;18.17;54.88;100964.00;5048311;28;9561;-66
2023/07/02 09:07:54;;;;;;;;;6.75;6.50;;;;;18.09;55.48;100967.13;5050884;28;8828;-66
2023/07/02 09:10:28;;;;;;;;;8.50;5.75;;;;;18.15;55.38;100957.13;5053865;28;8853;-65
2023/07/02 09:13:05;;;;;;;;;6.50;5.00;;;;;18.12;55.19;100972.09;5058007;28;8995;-66
2023/07/02 09:15:36;;;;;;;;;5.50;5.25;;;;;18.23;55.06;100968.50;5058823;28;8886;-66
2023/07/02 09:18:02;;;;;;;;;4.25;4.25;;;;;18.31;54.99;100969.16;5046880;28;9651;-66
2023/07/02 09:20:33;;;;;;;;;4.50;4.50;;;;;18.39;55.32;100963.34;5062704;28;8904;-66
2023/07/02 09:23:00;;;;;;;;;7.75;2.75;;;;;18.38;54.43;100978.03;5066806;28;8834;-66
2023/07/02 09:25:40;;;;;;;;;7.00;6.75;;;;;18.41;54.14;100975.66;5039337;28;8834;-67
2023/07/02 09:28:20;;;;;;;;;6.75;5.75;;;;;18.29;53.74;100981.16;5057126;28;8851;-67
2023/07/02 09:30:53;;;;;;;;;3.75;3.75;;;;;18.39;53.96;100976.97;5051809;28;8834;-67
2023/07/02 09:33:22;;;;;;;;;5.00;3.00;;;;;18.40;54.40;100970.47;5041980;28;8830;-68
2023/07/02 09:35:51;;;;;;;;;7.50;5.75;;;;;18.47;54.50;100974.72;5052636;28;8835;-67
2023/07/02 09:38:21;;;;;;;;;8.00;6.50;;;;;18.49;54.31;100977.19;5054186;28;9653;-67
2023/07/02 09:40:52;;;;;;;;;5.00;3.00;;;;;18.44;53.55;100977.91;5046056;28;8821;-66
2023/07/02 09:43:23;;;;;;;;;4.50;3.75;;;;;18.57;53.85;100982.25;5058392;28;8831;-66
2023/07/02 09:45:54;;;;;;;;;4.00;4.00;;;;;18.64;53.23;100974.75;5054413;28;8848;-66
2023/07/02 09:48:25;;;;;;;;;3.00;2.75;;;;;18.66;52.40;100972.59;5045231;28;8905;-65
2023/07/02 09:50:52;;;;;;;;;2.75;2.75;;;;;18.69;52.10;100983.00;5041512;28;8841;-66
2023/07/02 09:53:19;;;;;;;;;3.25;3.25;;;;;18.73;52.28;100978.75;5047357;28;8956;-67
2023/07/02 09:55:46;;;;;;;;;3.00;3.00;;;;;18.77;51.87;100985.38;5042105;28;9027;-66
2023/07/02 09:58:12;;;;;;;;;4.00;4.00;;;;;18.82;52.16;100986.53;5042290;28;8816;-66
2023/07/02 10:00:41;;;;;;;;;4.00;2.75;;;;;18.77;52.32;100979.09;5034778;28;8844;-65
2023/07/02 10:03:08;;;;;;;;;3.75;3.50;;;;;18.74;52.51;100985.03;5035013;28;8825;-66
2023/07/02 10:05:34;;;;;;;;;5.00;4.75;;;;;18.77;52.09;100998.19;5043546;28;8892;-65
2023/07/02 10:08:17;;;;;;;;;2.75;2.25;;;;;18.78;51.20;100994.38;5049392;28;8864;-64
2023/07/02 10:10:44;;;;;;;;;4.75;3.50;;;;;18.78;50.30;100992.47;5047812;28;8836;-65
2023/07/02 10:13:10;;;;;;;;;2.00;2.00;;;;;18.71;50.51;100989.06;5055339;28;8842;-66
2023/07/02 10:15:39;;;;;;;;;7.00;3.25;;;;;18.67;51.20;100989.78;5057183;28;8867;-65
2023/07/02 10:18:06;;;;;;;;;1.25;1.25;;;;;18.68;51.94;100992.28;5048815;28;8846;-65
2023/07/02 10:20:38;;;;;;;;;3.75;2.50;;;;;18.74;52.09;101004.13;5041581;28;8916;-66
2023/07/02 10:23:06;;;;;;;;;2.75;2.75;;;;;18.81;51.47;101003.97;5038138;28;8846;-66
2023/07/02 10:25:37;;;;;;;;;3.50;2.25;;;;;18.91;52.03;100990.50;5045713;28;9536;-66
2023/07/02 10:28:24;;;;;;;;;7.75;4.75;;;;;18.99;51.70;100996.38;5061016;28;8838;-66
2023/07/02 10:30:52;;;;;;;;;5.50;3.00;;;;;19.02;51.15;100995.91;5051613;28;8880;-67
2023/07/02 10:33:19;;;;;;;;;4.00;4.00;;;;;19.13;50.64;100999.66;5037850;28;8841;-67
2023/07/02 10:35:49;;;;;;;;;7.25;4.50;;;;;19.10;50.29;101008.31;5053559;28;8908;-67
2023/07/02 10:38:21;;;;;;;;;7.00;5.00;;;;;19.12;49.70;101011.63;5054873;28;9827;-66
2023/07/02 10:41:03;;;;;;;;;3.00;3.00;;;;;19.08;49.95;100999.56;5048481;28;8849;-68
2023/07/02 10:43:31;;;;;;;;;3.00;3.00;;;;;19.04;49.48;101012.03;5044338;28;8921;-65
2023/07/02 10:46:00;;;;;;;;;4.00;2.50;;;;;19.01;48.61;101023.44;5041741;28;8836;-66
2023/07/02 10:48:28;;;;;;;;;7.75;3.25;;;;;18.96;49.02;101018.72;5056737;28;8838;-66
2023/07/02 10:50:55;;;;;;;;;5.00;4.00;;;;;18.99;48.65;101003.75;5047150;28;8834;-68
2023/07/02 10:53:22;;;;;;;;;5.50;4.50;;;;;19.00;48.51;101013.59;5048879;28;8853;-66
2023/07/02 10:55:56;;;;;;;;;4.25;4.25;;;;;19.00;48.78;101021.78;5059502;28;8819;-65
2023/07/02 10:58:24;;;;;;;;;6.25;4.75;;;;;18.97;49.02;101016.81;5052368;28;8864;-65
2023/07/02 11:00:52;;;;;;;;;2.25;2.25;;;;;18.94;49.28;101020.84;5047923;28;8846;-68
2023/07/02 11:03:23;;;;;;;;;4.75;3.75;;;;;18.97;49.96;101025.00;5049126;28;8830;-68
2023/07/02 11:05:51;;;;;;;;;5.00;4.50;;;;;19.06;49.97;101025.44;5049058;28;8915;-67
2023/07/02 11:08:21;;;;;;;;;5.00;5.00;;;;;19.02;48.01;101027.81;5031937;28;8800;-69
2023/07/02 11:10:47;;;;;;;;;5.00;5.00;;;;;18.94;47.29;101022.75;5037352;28;8830;-66
2023/07/02 11:13:15;;;;;;;;;4.75;3.00;;;;;18.99;46.97;101031.03;5032244;28;8869;-68
2023/07/02 11:15:42;;;;;;;;;4.00;3.25;;;;;19.02;46.25;101016.91;5047455;28;8872;-67
2023/07/02 11:18:10;;;;;;;;;8.50;3.75;;;;;19.07;46.65;101030.63;5043167;28;8840;-68
2023/07/02 11:20:39;;;;;;;;;3.75;3.00;;;;;19.09;46.26;101025.75;5051195;28;8857;-68
2023/07/02 11:23:17;;;;;;;;;4.00;3.50;;;;;19.06;46.62;101036.34;5046322;28;8852;-69
2023/07/02 11:26:02;;;;;;;;;5.50;4.50;;;;;19.16;46.28;101014.66;5046923;28;8852;-69
2023/07/02 11:28:31;;;;;;;;;5.00;5.00;;;;;19.27;47.15;101033.72;5051077;28;8851;-69
2023/07/02 11:30:58;;;;;;;;;4.50;3.25;;;;;19.37;46.73;101034.97;5067517;28;8878;-68
2023/07/02 11:33:39;;;;;;;;;4.25;3.25;;;;;19.42;46.23;101035.03;5047704;28;8830;-69
2023/07/02 11:36:07;;;;;;;;;6.75;5.25;;;;;19.40;45.89;101037.19;5032043;28;8887;-68